Time;durP1;ratioP1;P1;durP2;ratioP2;P2;SDS_P1;SDS_P2;PMS_P1;PMS_P2;Temp;Humidity;BMP_temperature;BMP_pressure;BME280_temperature;BME280_humidity;BME280_pressure;Samples;Min_cycle;Max_cycle;Signal;HPM_P1;HPM_P2
2021/11/14 00:01:55;;;;;;;7.45;4.95;;;8.00;99.90;;;;;;5046961;28;20021;-59
2021/11/14 00:04:21;;;;;;;6.80;5.30;;;8.00;99.90;;;;;;5047157;28;20532;-59
2021/11/14 00:06:46;;;;;;;6.15;4.43;;;8.00;99.90;;;;;;5048950;28;20017;-58
2021/11/14 00:09:13;;;;;;;5.78;4.30;;;8.00;99.90;;;;;;5048899;28;20136;-59
2021/11/14 00:11:39;;;;;;;7.15;4.90;;;8.00;99.90;;;;;;5048795;28;20036;-60
2021/11/14 00:14:05;;;;;;;5.95;4.55;;;8.00;99.90;;;;;;5040028;28;20032;-59
2021/11/14 00:16:31;;;;;;;6.10;4.55;;;8.00;99.90;;;;;;5043212;28;20041;-59
2021/11/14 00:18:58;;;;;;;10.18;4.85;;;8.00;99.90;;;;;;5046206;28;20070;-57
2021/11/14 00:21:27;;;;;;;7.18;4.97;;;8.00;99.90;;;;;;5025072;28;20426;-59
2021/11/14 00:23:53;;;;;;;10.07;4.20;;;8.00;99.90;;;;;;5048082;28;20017;-60
2021/11/14 00:26:19;;;;;;;5.72;4.43;;;8.00;99.90;;;;;;5041303;28;20053;-57
2021/11/14 00:28:46;;;;;;;5.72;4.00;;;8.00;99.90;;;;;;5049277;28;20032;-57
2021/11/14 00:31:13;;;;;;;6.32;5.32;;;8.00;99.90;;;;;;5049482;28;20033;-59
2021/11/14 00:33:43;;;;;;;10.63;4.45;;;7.90;99.90;;;;;;5049590;28;20647;-58
2021/11/14 00:36:15;;;;;;;9.10;4.90;;;7.90;99.90;;;;;;5043618;28;20052;-58
2021/11/14 00:38:41;;;;;;;5.93;4.28;;;7.90;99.90;;;;;;5049740;28;20113;-60
2021/11/14 00:41:08;;;;;;;5.97;4.28;;;7.90;99.90;;;;;;5046239;28;20392;-59
2021/11/14 00:43:34;;;;;;;6.18;4.45;;;7.90;99.90;;;;;;5045810;28;20027;-58
2021/11/14 00:46:03;;;;;;;7.75;5.15;;;7.90;99.90;;;;;;5046057;28;20552;-58
2021/11/14 00:48:28;;;;;;;10.00;4.80;;;7.80;99.90;;;;;;5048210;28;20025;-59
2021/11/14 00:50:54;;;;;;;8.32;5.25;;;7.80;99.90;;;;;;5041946;28;20025;-59
2021/11/14 00:53:20;;;;;;;9.48;5.78;;;7.80;99.90;;;;;;5041507;28;20032;-58
2021/11/14 00:55:47;;;;;;;10.05;5.88;;;7.80;99.90;;;;;;5049348;28;20036;-57
2021/11/14 00:58:13;;;;;;;7.63;4.65;;;7.80;99.90;;;;;;5047254;28;20029;-56
2021/11/14 01:00:39;;;;;;;5.63;4.25;;;7.80;99.90;;;;;;5048937;28;20180;-59
2021/11/14 01:03:07;;;;;;;7.07;4.30;;;7.80;99.90;;;;;;5046514;28;20498;-57
2021/11/14 01:05:35;;;;;;;6.97;4.43;;;7.90;99.90;;;;;;5045437;28;20140;-58
2021/11/14 01:08:03;;;;;;;6.72;4.90;;;7.90;99.90;;;;;;5047594;28;20068;-60
2021/11/14 01:10:33;;;;;;;6.93;4.70;;;7.90;99.90;;;;;;5046266;28;20447;-59
2021/11/14 01:12:59;;;;;;;6.45;4.60;;;7.90;99.90;;;;;;5045771;28;20087;-58
2021/11/14 01:15:26;;;;;;;6.82;4.50;;;7.90;99.90;;;;;;5048397;28;20555;-58
2021/11/14 01:17:52;;;;;;;11.18;4.43;;;7.80;99.90;;;;;;5047593;28;20510;-57
2021/11/14 01:20:22;;;;;;;12.27;5.07;;;7.80;99.90;;;;;;5032099;28;20037;-58
2021/11/14 01:22:49;;;;;;;8.68;4.90;;;7.80;99.90;;;;;;5048510;28;20072;-59
2021/11/14 01:25:17;;;;;;;7.40;4.75;;;7.70;99.90;;;;;;5048764;28;20458;-57
2021/11/14 01:27:44;;;;;;;8.40;5.05;;;7.70;99.90;;;;;;5037578;28;20478;-58
2021/11/14 01:30:13;;;;;;;8.02;4.95;;;7.70;99.90;;;;;;5041593;28;20519;-58
2021/11/14 01:32:40;;;;;;;9.07;5.10;;;7.70;99.90;;;;;;5031044;28;20033;-56
2021/11/14 01:35:08;;;;;;;10.93;6.95;;;7.60;99.90;;;;;;5049511;28;20032;-57
2021/11/14 01:37:33;;;;;;;6.47;4.82;;;7.70;99.90;;;;;;5047640;28;20041;-59
2021/11/14 01:39:59;;;;;;;9.98;5.07;;;7.60;99.90;;;;;;5046221;28;20044;-60
2021/11/14 01:42:25;;;;;;;8.20;5.85;;;7.70;99.90;;;;;;5049621;28;20017;-58
2021/11/14 01:44:50;;;;;;;7.00;5.20;;;7.70;99.90;;;;;;5048870;28;20513;-58
2021/11/14 01:47:16;;;;;;;7.20;5.05;;;7.70;99.90;;;;;;5044812;28;20569;-59
2021/11/14 01:49:42;;;;;;;6.50;4.45;;;7.70;99.90;;;;;;5049110;28;20033;-58
2021/11/14 01:52:28;;;;;;;7.57;4.75;;;7.70;99.90;;;;;;5045968;28;20029;-59
2021/11/14 01:54:55;;;;;;;7.15;5.25;;;7.80;99.90;;;;;;5045838;28;20113;-59
2021/11/14 01:57:21;;;;;;;7.75;5.55;;;7.80;99.90;;;;;;5048693;28;20083;-57
2021/11/14 01:59:48;;;;;;;6.28;4.90;;;7.80;99.90;;;;;;5048229;28;20029;-59
2021/11/14 02:02:14;;;;;;;8.80;5.88;;;7.80;99.90;;;;;;5043731;28;20024;-54
2021/11/14 02:04:44;;;;;;;6.75;5.47;;;7.80;99.90;;;;;;5049412;28;20428;-58
2021/11/14 02:07:12;;;;;;;8.90;5.25;;;7.80;99.90;;;;;;5046154;28;20025;-56
2021/11/14 02:09:38;;;;;;;9.25;5.80;;;7.70;99.90;;;;;;5047419;28;20044;-59
2021/11/14 02:12:05;;;;;;;7.32;5.35;;;7.70;99.90;;;;;;5051842;28;20033;-60
2021/11/14 02:14:31;;;;;;;8.05;5.10;;;7.70;99.90;;;;;;5050780;28;20029;-60
2021/11/14 02:16:57;;;;;;;8.25;5.20;;;7.70;99.90;;;;;;5046789;28;20033;-58
2021/11/14 02:19:23;;;;;;;13.52;5.25;;;7.70;99.90;;;;;;5050169;28;20052;-58
2021/11/14 02:21:49;;;;;;;8.05;5.47;;;7.70;99.90;;;;;;5052282;28;20041;-59
2021/11/14 02:24:15;;;;;;;6.07;5.10;;;7.70;99.90;;;;;;5052995;28;20029;-50
2021/11/14 02:26:41;;;;;;;9.60;5.38;;;7.80;99.90;;;;;;5052972;28;20048;-56
2021/11/14 02:29:07;;;;;;;10.18;5.78;;;7.80;99.90;;;;;;5052905;28;20029;-57
2021/11/14 02:31:32;;;;;;;7.30;5.53;;;7.80;99.90;;;;;;5053140;28;20489;-58
2021/11/14 02:33:58;;;;;;;9.30;5.22;;;7.80;99.90;;;;;;5050788;28;20033;-60
2021/11/14 02:36:24;;;;;;;7.10;5.47;;;7.80;99.90;;;;;;5051169;28;20128;-56
2021/11/14 02:38:51;;;;;;;8.32;5.38;;;7.80;99.90;;;;;;5047513;28;20029;-60
2021/11/14 02:41:16;;;;;;;9.57;5.65;;;7.80;99.90;;;;;;5052134;28;20033;-56
2021/11/14 02:43:44;;;;;;;7.32;5.30;;;7.80;99.90;;;;;;5052321;28;20021;-58
2021/11/14 02:46:11;;;;;;;7.50;5.32;;;7.90;99.90;;;;;;5051329;28;20028;-57
2021/11/14 02:48:37;;;;;;;6.95;5.50;;;7.90;99.90;;;;;;5052348;28;20048;-56
2021/11/14 02:51:06;;;;;;;6.88;5.18;;;7.90;99.90;;;;;;5048599;28;20057;-58
2021/11/14 02:53:33;;;;;;;6.00;4.90;;;7.90;99.90;;;;;;5047412;28;20108;-55
2021/11/14 02:55:59;;;;;;;7.35;5.85;;;7.90;99.90;;;;;;5050303;28;20033;-59
2021/11/14 02:58:28;;;;;;;7.60;5.07;;;7.90;99.90;;;;;;5051867;28;20100;-57
2021/11/14 03:01:16;;;;;;;6.95;5.10;;;7.90;99.90;;;;;;5049184;28;20035;-57
2021/11/14 03:03:44;;;;;;;7.13;5.47;;;7.90;99.90;;;;;;5049589;28;20592;-58
2021/11/14 03:06:10;;;;;;;10.38;6.88;;;7.80;99.90;;;;;;5044284;28;20069;-57
2021/11/14 03:08:36;;;;;;;10.63;6.40;;;7.80;99.90;;;;;;5046554;28;20052;-58
2021/11/14 03:11:04;;;;;;;6.78;5.75;;;7.70;99.90;;;;;;5046219;28;20107;-54
2021/11/14 03:13:30;;;;;;;8.20;6.07;;;7.70;99.90;;;;;;5048179;28;20028;-57
2021/11/14 03:15:59;;;;;;;8.15;5.47;;;7.70;99.90;;;;;;5046142;28;20045;-51
2021/11/14 03:18:26;;;;;;;10.90;5.40;;;7.70;99.90;;;;;;5049882;28;20132;-55
2021/11/14 03:20:53;;;;;;;7.47;5.80;;;7.70;99.90;;;;;;5039690;28;20026;-57
2021/11/14 03:23:21;;;;;;;8.30;6.63;;;7.70;99.90;;;;;;5043513;28;20017;-53
2021/11/14 03:25:47;;;;;;;7.10;6.28;;;7.70;99.90;;;;;;5037169;28;20033;-57
2021/11/14 03:28:14;;;;;;;8.10;6.25;;;7.70;99.90;;;;;;5046664;28;20036;-58
2021/11/14 03:30:41;;;;;;;8.60;6.25;;;7.60;99.90;;;;;;5047721;28;20462;-57
2021/11/14 03:33:09;;;;;;;7.75;6.43;;;7.70;99.90;;;;;;5051133;28;20047;-56
2021/11/14 03:35:55;;;;;;;6.88;5.45;;;7.70;99.90;;;;;;5046156;28;20632;-53
2021/11/14 03:38:27;;;;;;;7.18;5.57;;;7.70;99.90;;;;;;5051581;28;20443;-57
2021/11/14 03:40:52;;;;;;;6.53;5.88;;;7.70;99.90;;;;;;5050410;28;20025;-59
2021/11/14 03:43:19;;;;;;;7.38;5.95;;;7.60;99.90;;;;;;5043938;28;20387;-57
2021/11/14 03:45:44;;;;;;;7.13;5.45;;;7.60;99.90;;;;;;5044480;28;20031;-56
2021/11/14 03:48:11;;;;;;;6.53;5.72;;;7.60;99.90;;;;;;5046419;28;20025;-58
2021/11/14 03:50:37;;;;;;;8.93;5.15;;;7.50;99.90;;;;;;5044431;28;20051;-56
2021/11/14 03:53:03;;;;;;;9.63;6.35;;;7.50;99.90;;;;;;5039036;28;20029;-54
2021/11/14 03:55:29;;;;;;;6.95;5.30;;;7.50;99.90;;;;;;5046602;28;20035;-56
2021/11/14 03:57:55;;;;;;;6.45;5.30;;;7.40;99.90;;;;;;5043541;28;20404;-57
2021/11/14 04:00:25;;;;;;;7.63;6.60;;;7.40;99.90;;;;;;5050141;28;20474;-55
2021/11/14 04:02:53;;;;;;;11.40;6.45;;;7.40;99.90;;;;;;5045142;28;20033;-60
2021/11/14 04:05:20;;;;;;;7.28;6.20;;;7.30;99.90;;;;;;5051250;28;20017;-56
2021/11/14 04:07:46;;;;;;;8.98;6.47;;;7.30;99.90;;;;;;5049367;28;20028;-53
2021/11/14 04:10:12;;;;;;;9.07;6.65;;;7.30;99.90;;;;;;5042581;28;20120;-57
2021/11/14 04:12:38;;;;;;;7.55;6.47;;;7.30;99.90;;;;;;5043251;28;20028;-57
2021/11/14 04:15:09;;;;;;;8.25;6.57;;;7.20;99.90;;;;;;5040224;28;20051;-58
2021/11/14 04:17:35;;;;;;;8.13;6.20;;;7.10;99.90;;;;;;5041281;28;20037;-56
2021/11/14 04:20:02;;;;;;;9.75;6.97;;;7.00;99.90;;;;;;5046796;28;20356;-56
2021/11/14 04:22:28;;;;;;;8.15;6.40;;;7.00;99.90;;;;;;5042885;28;20439;-56
2021/11/14 04:24:53;;;;;;;10.18;7.50;;;7.00;99.90;;;;;;5048703;28;20051;-52
2021/11/14 04:27:19;;;;;;;10.27;7.78;;;6.90;99.90;;;;;;5040687;28;20075;-52
2021/11/14 04:29:44;;;;;;;10.32;7.70;;;6.80;99.90;;;;;;5038767;28;20049;-55
2021/11/14 04:32:10;;;;;;;12.55;7.72;;;6.80;99.90;;;;;;5048980;28;20098;-56
2021/11/14 04:34:35;;;;;;;12.00;8.07;;;6.70;99.90;;;;;;5041319;28;20036;-58
2021/11/14 04:37:01;;;;;;;10.93;8.30;;;6.60;99.90;;;;;;5049408;28;20044;-58
2021/11/14 04:39:27;;;;;;;12.75;8.85;;;6.60;99.90;;;;;;5050150;28;20025;-57
2021/11/14 04:41:53;;;;;;;13.50;9.60;;;6.50;99.90;;;;;;5050821;28;20493;-58
2021/11/14 04:44:19;;;;;;;14.27;9.65;;;6.50;99.90;;;;;;5050809;28;20095;-52
2021/11/14 04:46:44;;;;;;;11.98;9.52;;;6.40;99.90;;;;;;5046811;28;20505;-54
2021/11/14 04:49:10;;;;;;;13.75;9.50;;;6.30;99.90;;;;;;5040617;28;20032;-54
2021/11/14 04:51:36;;;;;;;13.75;9.45;;;6.30;99.90;;;;;;5045260;28;20021;-58
2021/11/14 04:54:01;;;;;;;11.95;9.23;;;6.20;99.90;;;;;;5041834;28;20029;-55
2021/11/14 04:56:28;;;;;;;14.30;10.98;;;6.20;99.90;;;;;;5042066;28;20091;-58
2021/11/14 04:58:54;;;;;;;13.52;9.95;;;6.20;99.90;;;;;;5041092;28;20021;-58
2021/11/14 05:01:20;;;;;;;12.85;10.32;;;6.20;99.90;;;;;;5041794;28;20021;-57
2021/11/14 05:03:45;;;;;;;12.18;9.40;;;6.20;99.90;;;;;;5047234;28;20060;-59
2021/11/14 05:06:13;;;;;;;11.10;8.95;;;6.10;99.90;;;;;;5050519;28;20033;-61
2021/11/14 05:08:38;;;;;;;13.93;10.30;;;6.10;99.90;;;;;;5045630;28;20020;-58
2021/11/14 05:11:04;;;;;;;16.83;10.20;;;6.10;99.90;;;;;;5044199;28;20033;-56
2021/11/14 05:13:30;;;;;;;14.32;10.57;;;6.00;99.90;;;;;;5042806;28;20029;-57
2021/11/14 05:15:55;;;;;;;17.23;10.32;;;5.90;99.90;;;;;;5045902;28;20117;-59
2021/11/14 05:18:21;;;;;;;15.02;10.40;;;6.00;99.90;;;;;;5045625;28;20502;-57
2021/11/14 05:20:46;;;;;;;15.75;11.27;;;6.00;99.90;;;;;;5040949;28;20440;-57
2021/11/14 05:23:16;;;;;;;15.93;11.20;;;6.00;99.90;;;;;;5041754;28;20033;-59
2021/11/14 05:25:42;;;;;;;14.75;10.73;;;6.00;99.90;;;;;;5036968;28;20041;-59
2021/11/14 05:28:08;;;;;;;15.98;10.05;;;5.90;99.90;;;;;;5035118;28;20032;-58
2021/11/14 05:30:34;;;;;;;16.50;11.85;;;5.90;99.90;;;;;;5043716;28;20029;-59
2021/11/14 05:33:00;;;;;;;15.32;10.63;;;5.90;99.90;;;;;;5040761;28;20732;-61
2021/11/14 05:35:26;;;;;;;14.93;10.35;;;5.90;99.90;;;;;;5041895;28;20100;-57
2021/11/14 05:37:51;;;;;;;14.23;10.82;;;5.90;99.90;;;;;;5038585;28;20037;-59
2021/11/14 05:40:17;;;;;;;14.70;11.13;;;6.00;99.90;;;;;;5040631;28;20104;-52
2021/11/14 05:42:42;;;;;;;15.23;11.63;;;6.10;99.90;;;;;;5038217;28;20036;-58
2021/11/14 05:45:08;;;;;;;13.40;10.63;;;6.10;99.90;;;;;;5035982;28;20098;-58
2021/11/14 05:47:34;;;;;;;14.20;10.45;;;6.20;99.90;;;;;;5047387;28;20028;-54
2021/11/14 05:50:00;;;;;;;11.85;8.90;;;6.30;99.90;;;;;;5039715;28;20078;-58
2021/11/14 05:52:26;;;;;;;16.55;9.18;;;6.40;99.90;;;;;;5043998;28;20071;-57
2021/11/14 05:54:52;;;;;;;10.95;7.97;;;6.40;99.90;;;;;;5038884;28;20073;-58
2021/11/14 05:57:18;;;;;;;10.32;8.00;;;6.40;99.90;;;;;;5043999;28;20072;-59
2021/11/14 06:02:18;;;;;;;10.10;7.70;;;6.60;99.90;;;;;;5042967;28;20036;-58
2021/11/14 06:05:11;;;;;;;8.20;6.28;;;6.70;99.90;;;;;;5044543;28;20021;-58
2021/11/14 06:07:37;;;;;;;8.98;6.88;;;6.70;99.90;;;;;;5040324;28;20056;-60
2021/11/14 06:10:04;;;;;;;6.93;6.18;;;6.70;99.90;;;;;;5048140;28;20601;-59
2021/11/14 06:12:30;;;;;;;11.43;6.90;;;6.70;99.90;;;;;;5035687;28;20394;-58
2021/11/14 06:14:56;;;;;;;9.52;6.70;;;6.70;99.90;;;;;;5043465;28;20029;-59
2021/11/14 06:17:22;;;;;;;9.27;6.97;;;6.70;99.90;;;;;;5036031;28;20037;-59
2021/11/14 06:19:48;;;;;;;9.00;6.15;;;6.70;99.90;;;;;;5038230;28;20056;-59
2021/11/14 06:22:15;;;;;;;7.93;6.20;;;6.70;99.90;;;;;;5043159;28;20021;-56
2021/11/14 06:24:41;;;;;;;7.68;5.60;;;6.70;99.90;;;;;;5043512;28;20048;-59
2021/11/14 06:27:07;;;;;;;12.93;6.53;;;6.70;99.90;;;;;;5032213;28;20029;-59
2021/11/14 06:29:33;;;;;;;8.65;6.00;;;6.70;99.90;;;;;;5042345;28;20523;-57
2021/11/14 06:31:58;;;;;;;8.45;6.32;;;6.60;99.90;;;;;;5044278;28;20037;-57
2021/11/14 06:34:24;;;;;;;9.63;6.03;;;6.50;99.90;;;;;;5042375;28;20040;-56
2021/11/14 06:36:49;;;;;;;8.13;6.45;;;6.50;99.90;;;;;;5045971;28;20032;-58
2021/11/14 06:39:15;;;;;;;8.38;6.07;;;6.40;99.90;;;;;;5047836;28;20029;-57
2021/11/14 06:41:40;;;;;;;8.85;6.35;;;6.40;99.90;;;;;;5042067;28;20509;-58
2021/11/14 06:44:06;;;;;;;8.98;5.82;;;6.50;99.90;;;;;;5040316;28;20083;-59
2021/11/14 06:46:31;;;;;;;8.63;6.20;;;6.50;99.90;;;;;;5039569;28;20119;-60
2021/11/14 06:48:57;;;;;;;7.45;5.82;;;6.50;99.90;;;;;;5042680;28;20040;-56
2021/11/14 06:51:23;;;;;;;9.57;6.82;;;6.60;99.90;;;;;;5044412;28;20025;-59
2021/11/14 06:53:48;;;;;;;18.55;11.32;;;6.70;99.90;;;;;;5036828;28;20459;-60
2021/11/14 06:56:14;;;;;;;18.30;10.45;;;6.80;99.90;;;;;;5045143;28;20021;-56
2021/11/14 06:58:40;;;;;;;13.10;9.18;;;6.80;99.90;;;;;;5047470;28;20021;-58
2021/11/14 07:01:05;;;;;;;11.07;7.30;;;6.90;99.90;;;;;;5049737;28;20037;-58
2021/11/14 07:03:31;;;;;;;9.85;7.40;;;6.90;99.90;;;;;;5051103;28;20395;-57
2021/11/14 07:05:56;;;;;;;11.27;7.32;;;6.90;99.90;;;;;;5041866;28;20021;-61
2021/11/14 07:08:22;;;;;;;12.60;6.80;;;6.90;99.90;;;;;;5042097;28;20053;-58
2021/11/14 07:10:48;;;;;;;10.32;6.28;;;6.90;99.90;;;;;;5045888;28;20087;-55
2021/11/14 07:13:13;;;;;;;10.38;5.85;;;6.90;99.90;;;;;;5048401;28;20029;-56
2021/11/14 07:15:39;;;;;;;8.48;5.97;;;7.00;99.90;;;;;;5049436;28;20039;-58
2021/11/14 07:18:05;;;;;;;13.77;6.57;;;7.00;99.90;;;;;;5043731;28;20033;-55
2021/11/14 07:20:31;;;;;;;9.00;6.97;;;7.00;99.90;;;;;;5044804;28;20036;-58
2021/11/14 07:22:56;;;;;;;6.45;4.90;;;7.00;99.90;;;;;;5045357;28;20020;-57
2021/11/14 07:25:22;;;;;;;8.05;5.10;;;7.00;99.90;;;;;;5051488;28;20406;-55
2021/11/14 07:27:51;;;;;;;7.18;4.97;;;7.10;99.90;;;;;;5044954;28;20021;-59
2021/11/14 07:30:18;;;;;;;8.95;6.63;;;7.20;99.90;;;;;;5040953;28;20045;-61
2021/11/14 07:32:44;;;;;;;8.65;5.38;;;7.20;99.90;;;;;;5048855;28;20099;-57
2021/11/14 07:35:12;;;;;;;7.20;4.60;;;7.20;99.90;;;;;;5049663;28;20677;-53
2021/11/14 07:37:41;;;;;;;7.03;5.50;;;7.30;99.90;;;;;;5041464;28;20039;-59
2021/11/14 07:40:08;;;;;;;5.80;4.38;;;7.40;99.90;;;;;;5044454;28;20075;-55
2021/11/14 07:42:36;;;;;;;4.82;3.78;;;7.40;99.90;;;;;;5050071;28;20040;-57
2021/11/14 07:45:02;;;;;;;4.65;3.50;;;7.50;99.90;;;;;;5048568;28;20029;-55
2021/11/14 07:47:28;;;;;;;4.13;3.08;;;7.50;99.90;;;;;;5048162;28;20033;-58
2021/11/14 07:49:54;;;;;;;4.53;2.70;;;7.60;99.90;;;;;;5046878;28;20025;-55
2021/11/14 07:52:20;;;;;;;3.80;2.97;;;7.70;99.90;;;;;;5049850;28;20459;-53
2021/11/14 07:54:46;;;;;;;4.10;3.10;;;7.80;99.90;;;;;;5044715;28;20029;-59
2021/11/14 07:57:12;;;;;;;2.45;2.15;;;7.80;99.90;;;;;;5041059;28;20032;-58
2021/11/14 07:59:37;;;;;;;11.88;6.60;;;7.90;99.90;;;;;;5041981;28;20617;-56
2021/11/14 08:02:03;;;;;;;8.20;5.00;;;8.00;99.90;;;;;;5034204;28;20108;-58
2021/11/14 08:04:29;;;;;;;8.43;3.78;;;8.10;99.90;;;;;;5049662;28;20056;-59
2021/11/14 08:06:56;;;;;;;3.58;2.33;;;8.20;99.90;;;;;;5038662;28;20113;-58
2021/11/14 08:09:22;;;;;;;2.58;2.20;;;8.30;99.90;;;;;;5041584;28;20091;-60
2021/11/14 08:11:48;;;;;;;6.70;2.97;;;8.30;99.90;;;;;;5046077;28;20029;-60
2021/11/14 08:14:14;;;;;;;13.75;8.23;;;8.30;99.90;;;;;;5043223;28;20030;-59
2021/11/14 08:16:39;;;;;;;5.35;3.58;;;8.40;99.90;;;;;;5044713;28;20501;-59
2021/11/14 08:19:05;;;;;;;5.95;4.00;;;8.40;99.90;;;;;;5041321;28;20036;-60
2021/11/14 08:21:30;;;;;;;20.63;12.73;;;8.50;99.90;;;;;;5047597;28;20103;-60
2021/11/14 08:23:56;;;;;;;8.90;5.60;;;8.50;99.90;;;;;;5042973;28;20394;-58
2021/11/14 08:26:21;;;;;;;5.07;4.47;;;8.60;99.90;;;;;;5047504;28;20025;-55
2021/11/14 08:28:47;;;;;;;3.45;2.97;;;8.60;99.90;;;;;;5044598;28;20094;-59
2021/11/14 08:31:18;;;;;;;2.85;2.42;;;8.60;99.90;;;;;;5047537;28;20122;-58
2021/11/14 08:33:44;;;;;;;8.20;3.20;;;8.50;99.90;;;;;;5042254;28;20025;-59
2021/11/14 08:36:09;;;;;;;3.53;3.22;;;8.50;99.90;;;;;;5050510;28;20027;-59
2021/11/14 08:38:35;;;;;;;4.70;2.50;;;8.40;99.90;;;;;;5045965;28;20033;-59
2021/11/14 08:41:01;;;;;;;5.28;3.13;;;8.50;99.90;;;;;;5045009;28;20028;-60
2021/11/14 08:43:26;;;;;;;3.22;2.70;;;8.40;99.90;;;;;;5042986;28;20100;-56
2021/11/14 08:45:52;;;;;;;3.17;2.70;;;8.50;99.90;;;;;;5036970;28;20020;-58
2021/11/14 08:48:18;;;;;;;3.20;2.40;;;8.50;99.90;;;;;;5046749;28;20052;-53
2021/11/14 08:50:46;;;;;;;2.40;2.08;;;8.50;99.90;;;;;;5044224;28;20402;-58
2021/11/14 08:53:12;;;;;;;2.72;2.40;;;8.40;99.90;;;;;;5045187;28;20033;-57
2021/11/14 08:55:37;;;;;;;3.10;2.33;;;8.50;99.90;;;;;;5045959;28;20128;-58
2021/11/14 08:58:03;;;;;;;3.35;1.95;;;8.50;99.90;;;;;;5047197;28;20107;-59
2021/11/14 09:00:32;;;;;;;2.67;2.28;;;8.40;99.90;;;;;;5047767;28;20032;-58
2021/11/14 09:03:00;;;;;;;3.13;2.83;;;8.40;99.90;;;;;;5043940;28;20017;-59
2021/11/14 09:05:27;;;;;;;2.90;1.95;;;8.40;99.90;;;;;;5045171;28;20436;-57
2021/11/14 09:07:56;;;;;;;3.08;2.65;;;8.40;99.90;;;;;;5043900;28;20025;-58
2021/11/14 09:10:22;;;;;;;5.47;2.20;;;8.40;99.90;;;;;;5045849;28;20036;-51
2021/11/14 09:12:49;;;;;;;4.38;2.78;;;8.40;99.90;;;;;;5046163;28;20025;-58
2021/11/14 09:15:15;;;;;;;5.03;2.90;;;8.40;99.90;;;;;;5049386;28;20531;-59
2021/11/14 09:17:40;;;;;;;3.33;2.63;;;8.50;99.90;;;;;;5043621;28;20052;-58
2021/11/14 09:20:07;;;;;;;2.88;2.40;;;8.60;99.90;;;;;;5045942;28;20048;-59
2021/11/14 09:22:34;;;;;;;3.00;2.05;;;8.60;99.90;;;;;;5042757;28;20461;-58
2021/11/14 09:25:00;;;;;;;2.78;1.95;;;8.70;99.90;;;;;;5040451;28;20183;-59
2021/11/14 09:27:25;;;;;;;2.05;1.60;;;8.80;99.90;;;;;;5046044;28;20517;-58
2021/11/14 09:29:51;;;;;;;2.25;1.65;;;8.80;99.90;;;;;;5044726;28;20040;-59
2021/11/14 09:32:16;;;;;;;2.47;1.38;;;8.90;99.90;;;;;;5044685;28;20021;-60
2021/11/14 09:34:42;;;;;;;1.45;1.33;;;8.90;99.90;;;;;;5036247;28;20107;-58
2021/11/14 09:37:08;;;;;;;4.05;1.88;;;9.00;99.90;;;;;;5044304;28;20107;-56
2021/11/14 09:39:33;;;;;;;1.65;1.42;;;9.00;99.90;;;;;;5037747;28;20097;-57
2021/11/14 09:42:00;;;;;;;1.90;1.67;;;9.10;99.90;;;;;;5041751;28;20079;-58
2021/11/14 09:44:26;;;;;;;1.42;1.17;;;9.20;99.90;;;;;;5043316;28;20512;-59
2021/11/14 09:46:58;;;;;;;3.38;1.85;;;9.20;99.90;;;;;;5043516;28;20036;-59
2021/11/14 09:49:27;;;;;;;1.88;1.33;;;9.30;99.90;;;;;;5041520;28;20426;-57
2021/11/14 09:51:55;;;;;;;1.20;1.10;;;9.30;99.90;;;;;;5043485;28;20059;-56
2021/11/14 09:54:23;;;;;;;0.88;0.88;;;9.40;99.90;;;;;;5048955;28;20025;-50
2021/11/14 09:56:49;;;;;;;1.52;1.42;;;9.40;99.90;;;;;;5043067;28;20040;-58
2021/11/14 09:59:16;;;;;;;1.48;1.38;;;9.50;99.90;;;;;;5045976;28;20610;-57
2021/11/14 10:01:44;;;;;;;2.28;1.10;;;9.50;99.90;;;;;;5045703;28;20434;-55
2021/11/14 10:04:09;;;;;;;1.40;1.30;;;9.40;99.90;;;;;;5043395;28;20092;-57
2021/11/14 10:06:35;;;;;;;2.03;1.83;;;9.50;99.90;;;;;;5045668;28;20570;-60
2021/11/14 10:09:03;;;;;;;1.45;1.35;;;9.50;99.90;;;;;;5039400;28;20529;-55
2021/11/14 10:11:36;;;;;;;3.28;2.97;;;9.50;99.90;;;;;;5046983;28;20504;-55
2021/11/14 10:14:02;;;;;;;1.95;1.50;;;9.50;99.90;;;;;;5040599;28;20487;-56
2021/11/14 10:16:29;;;;;;;2.55;2.13;;;9.60;99.90;;;;;;5043327;28;20040;-57
2021/11/14 10:19:06;;;;;;;1.70;1.60;;;9.60;99.90;;;;;;5044116;28;20052;-58
2021/11/14 10:21:34;;;;;;;2.08;1.58;;;9.60;99.90;;;;;;5037920;28;20029;-57
2021/11/14 10:24:04;;;;;;;5.47;1.90;;;9.70;99.90;;;;;;5044396;28;20424;-56
2021/11/14 10:26:30;;;;;;;1.92;1.65;;;9.80;99.90;;;;;;5047318;28;20033;-55
2021/11/14 10:29:02;;;;;;;3.78;1.85;;;9.80;99.90;;;;;;5042178;28;20486;-57
2021/11/14 10:31:29;;;;;;;2.05;1.85;;;9.80;99.90;;;;;;5048277;28;20071;-58
2021/11/14 10:33:55;;;;;;;1.83;1.67;;;10.00;99.90;;;;;;5052074;28;20078;-56
2021/11/14 10:36:22;;;;;;;2.58;1.85;;;10.10;99.90;;;;;;5047210;28;20117;-53
2021/11/14 10:38:48;;;;;;;2.25;1.88;;;10.10;99.90;;;;;;5049768;28;20025;-58
2021/11/14 10:41:15;;;;;;;2.47;1.83;;;10.20;99.90;;;;;;5046257;28;20032;-60
2021/11/14 10:43:43;;;;;;;2.97;1.80;;;10.20;99.90;;;;;;5044426;28;20021;-58
2021/11/14 10:46:24;;;;;;;2.45;2.20;;;10.20;99.90;;;;;;5047735;28;20060;-56
2021/11/14 10:48:50;;;;;;;20.33;11.07;;;10.40;99.90;;;;;;5050782;28;20068;-57
2021/11/14 10:51:17;;;;;;;5.38;2.80;;;10.40;99.90;;;;;;5049938;28;20151;-59
2021/11/14 10:53:48;;;;;;;2.85;2.10;;;10.50;99.90;;;;;;5049555;28;20021;-58
2021/11/14 10:56:15;;;;;;;2.63;1.77;;;10.60;99.90;;;;;;5050036;28;20025;-59
2021/11/14 10:58:41;;;;;;;1.95;1.65;;;10.70;99.90;;;;;;5048746;28;20494;-60
2021/11/14 11:01:10;;;;;;;4.88;1.67;;;10.70;99.90;;;;;;5049609;28;20021;-60
2021/11/14 11:03:46;;;;;;;2.25;1.77;;;10.70;99.90;;;;;;5023319;28;20037;-60
2021/11/14 11:06:27;;;;;;;2.35;2.00;;;10.80;99.90;;;;;;5048606;28;20043;-61
2021/11/14 11:08:59;;;;;;;2.40;2.13;;;10.80;99.90;;;;;;5048853;28;20435;-58
2021/11/14 11:11:27;;;;;;;2.30;1.98;;;10.80;99.90;;;;;;5050001;28;20037;-61
2021/11/14 11:13:54;;;;;;;2.60;1.90;;;10.60;99.90;;;;;;5043559;28;20041;-59
2021/11/14 11:16:25;;;;;;;1.65;1.55;;;10.50;99.90;;;;;;5045106;28;20502;-54
2021/11/14 11:19:08;;;;;;;1.63;1.50;;;10.40;99.90;;;;;;5042070;28;20114;-59
2021/11/14 11:21:45;;;;;;;1.50;1.40;;;10.50;99.90;;;;;;5042932;28;20060;-59
2021/11/14 11:24:21;;;;;;;2.20;1.42;;;10.50;99.90;;;;;;5047189;28;20032;-56
2021/11/14 11:27:08;;;;;;;2.60;1.70;;;10.40;99.90;;;;;;5047959;28;20478;-60
2021/11/14 11:29:37;;;;;;;1.80;1.58;;;10.40;99.90;;;;;;5040074;28;20044;-58
2021/11/14 11:32:05;;;;;;;1.80;1.40;;;10.40;99.90;;;;;;5049790;28;20032;-60
2021/11/14 11:34:30;;;;;;;5.25;1.80;;;10.40;99.90;;;;;;5041575;28;20033;-60
2021/11/14 11:36:56;;;;;;;4.45;1.50;;;10.40;99.90;;;;;;5041351;28;20449;-59
2021/11/14 11:39:22;;;;;;;1.80;1.50;;;10.30;99.90;;;;;;5047071;28;20100;-57
2021/11/14 11:41:50;;;;;;;1.65;1.50;;;10.50;99.90;;;;;;5050755;28;20738;-58
2021/11/14 11:44:17;;;;;;;1.55;1.45;;;10.60;99.90;;;;;;5047187;28;20407;-58
2021/11/14 11:46:47;;;;;;;1.75;1.65;;;10.80;99.90;;;;;;5051799;28;20570;-58
2021/11/14 11:49:19;;;;;;;5.00;1.55;;;10.80;99.90;;;;;;5043091;28;20514;-60
2021/11/14 11:51:52;;;;;;;2.65;1.70;;;10.80;99.90;;;;;;5040897;28;20576;-60
2021/11/14 11:54:21;;;;;;;1.73;1.45;;;10.80;99.90;;;;;;5042972;28;20029;-59
2021/11/14 11:56:50;;;;;;;4.80;1.40;;;10.80;99.90;;;;;;5044094;28;20380;-59
2021/11/14 11:59:28;;;;;;;1.70;1.52;;;10.90;99.90;;;;;;5043880;28;20495;-60
2021/11/14 12:01:57;;;;;;;7.40;2.55;;;11.10;99.90;;;;;;5046476;28;20044;-59
2021/11/14 12:04:32;;;;;;;3.97;2.53;;;11.10;99.90;;;;;;5041691;28;20150;-53
2021/11/14 12:07:20;;;;;;;4.53;1.52;;;11.10;99.90;;;;;;5042338;28;20090;-58
2021/11/14 12:09:48;;;;;;;1.95;1.73;;;11.00;99.90;;;;;;5042058;28;20041;-61
2021/11/14 12:12:25;;;;;;;4.65;2.40;;;11.00;99.90;;;;;;5040744;28;20425;-58
2021/11/14 12:15:15;;;;;;;1.67;1.58;;;11.00;99.90;;;;;;5045793;28;20041;-60
2021/11/14 12:17:55;;;;;;;1.63;1.38;;;11.20;99.90;;;;;;5045835;28;20563;-57
2021/11/14 12:20:35;;;;;;;1.60;1.50;;;11.20;99.90;;;;;;5042737;28;20386;-54
2021/11/14 12:23:17;;;;;;;2.17;1.40;;;11.30;99.90;;;;;;5040806;28;20075;-59
2021/11/14 12:25:50;;;;;;;2.80;1.80;;;11.40;99.90;;;;;;5045231;28;20486;-59
2021/11/14 12:28:19;;;;;;;2.10;1.50;;;11.50;99.90;;;;;;5041045;28;20037;-57
2021/11/14 12:33:29;;;;;;;3.90;1.48;;;11.40;99.90;;;;;;5036186;28;20044;-60
2021/11/14 12:36:10;;;;;;;2.65;1.52;;;11.30;99.90;;;;;;5045100;28;20033;-58
2021/11/14 12:38:36;;;;;;;2.67;1.83;;;11.40;99.90;;;;;;5039892;28;20028;-61
2021/11/14 12:41:08;;;;;;;1.77;1.52;;;11.30;99.90;;;;;;5042118;28;20495;-60
2021/11/14 12:43:43;;;;;;;1.40;1.02;;;11.30;99.90;;;;;;5040080;28;20061;-61
2021/11/14 12:46:15;;;;;;;2.22;1.80;;;11.40;99.90;;;;;;5049520;28;20502;-55
2021/11/14 12:48:44;;;;;;;6.25;3.55;;;11.20;99.90;;;;;;5042747;28;20405;-54
2021/11/14 12:51:20;;;;;;;9.93;4.80;;;11.20;99.90;;;;;;5048722;28;20025;-58
2021/11/14 12:53:54;;;;;;;1.17;1.00;;;11.30;99.90;;;;;;5049947;28;20406;-59
2021/11/14 12:56:29;;;;;;;1.48;1.30;;;11.30;99.90;;;;;;5044942;28;20104;-61
2021/11/14 12:58:57;;;;;;;3.40;1.77;;;11.30;99.90;;;;;;5043985;28;20078;-58
2021/11/14 13:01:30;;;;;;;1.65;1.33;;;11.30;99.90;;;;;;5034455;28;20046;-56